createdAt,value
2018-07-30T00:03:19.217Z,96915
2018-07-30T00:04:35.203Z,96911
2018-07-30T00:05:51.192Z,96911
2018-07-30T00:07:07.154Z,96912
2018-07-30T00:08:23.142Z,96910
2018-07-30T00:09:39.130Z,96913
2018-07-30T00:10:55.078Z,96913
2018-07-30T00:12:11.043Z,96910
2018-07-30T00:13:26.977Z,96913
2018-07-30T00:14:42.922Z,96912
2018-07-30T00:15:58.773Z,96917
2018-07-30T00:17:14.693Z,96915
2018-07-30T00:18:30.560Z,96911
2018-07-30T00:19:46.467Z,96915
2018-07-30T00:21:02.354Z,96917
2018-07-30T00:22:18.274Z,96914
2018-07-30T00:23:34.164Z,96915
2018-07-30T00:24:50.020Z,96920
2018-07-30T00:26:05.889Z,96919
2018-07-30T00:27:21.828Z,96918
2018-07-30T00:28:37.688Z,96920
2018-07-30T00:29:53.547Z,96916
2018-07-30T00:31:09.455Z,96916
2018-07-30T00:32:25.342Z,96917
2018-07-30T00:33:41.257Z,96914
2018-07-30T00:34:57.149Z,96915
2018-07-30T00:36:13.055Z,96913
2018-07-30T00:37:28.953Z,96913
2018-07-30T00:38:44.825Z,96914
2018-07-30T00:40:00.676Z,96913
2018-07-30T00:41:16.533Z,96912
2018-07-30T00:42:32.421Z,96916
2018-07-30T00:43:48.290Z,96913
2018-07-30T00:45:04.138Z,96915
2018-07-30T00:46:20.031Z,96914
2018-07-30T00:47:35.939Z,96917
2018-07-30T00:48:51.822Z,96917
2018-07-30T00:50:07.745Z,96917
2018-07-30T00:51:23.646Z,96920
2018-07-30T00:52:39.534Z,96918
2018-07-30T00:53:55.440Z,96914
2018-07-30T00:55:11.349Z,96914
2018-07-30T00:56:27.248Z,96918
2018-07-30T00:57:43.195Z,96917
2018-07-30T00:58:59.104Z,96917
2018-07-30T01:00:15.027Z,96917
2018-07-30T01:01:30.931Z,96919
2018-07-30T01:02:46.823Z,96916
2018-07-30T01:04:02.842Z,96917
2018-07-30T01:05:18.738Z,96916
2018-07-30T01:06:34.617Z,96918
2018-07-30T01:07:50.501Z,96917
2018-07-30T01:09:06.497Z,96920
2018-07-30T01:10:22.457Z,96921
2018-07-30T01:11:38.362Z,96923
2018-07-30T01:12:54.240Z,96924
2018-07-30T01:14:10.106Z,96920
2018-07-30T01:15:25.996Z,96923
2018-07-30T01:16:41.875Z,96927
2018-07-30T01:17:57.759Z,96925
2018-07-30T01:19:13.624Z,96925
2018-07-30T01:20:29.522Z,96928
2018-07-30T01:21:45.469Z,96929
2018-07-30T01:23:01.212Z,96930
2018-07-30T01:24:17.084Z,96932
2018-07-30T01:25:32.991Z,96934
2018-07-30T01:26:48.862Z,96929
2018-07-30T01:28:04.813Z,96928
2018-07-30T01:29:20.698Z,96928
2018-07-30T01:30:36.585Z,96934
2018-07-30T01:31:52.448Z,96932
2018-07-30T01:33:08.319Z,96932
2018-07-30T01:34:24.224Z,96932
2018-07-30T01:35:40.132Z,96938
2018-07-30T01:36:56.018Z,96938
2018-07-30T01:38:11.876Z,96938
2018-07-30T01:39:27.784Z,96944
2018-07-30T01:40:43.640Z,96943
2018-07-30T01:41:59.516Z,96938
2018-07-30T01:43:15.381Z,96943
2018-07-30T01:44:31.275Z,96940
2018-07-30T01:45:47.173Z,96944
2018-07-30T01:47:03.083Z,96943
2018-07-30T01:48:18.976Z,96946
2018-07-30T01:49:34.852Z,96950
2018-07-30T01:50:50.738Z,96946
2018-07-30T01:52:06.578Z,96944
2018-07-30T01:53:22.451Z,96948
2018-07-30T01:54:38.326Z,96950
2018-07-30T01:55:54.222Z,96950
2018-07-30T01:57:10.106Z,96950
2018-07-30T01:58:25.984Z,96952
2018-07-30T01:59:41.894Z,96947
2018-07-30T02:00:57.858Z,96953
2018-07-30T02:02:13.758Z,96951
2018-07-30T02:03:29.706Z,96951
2018-07-30T02:04:44.633Z,96955
2018-07-30T02:06:00.689Z,96955
2018-07-30T02:07:16.619Z,96954
2018-07-30T02:08:32.570Z,96957
2018-07-30T02:11:29.353Z,96956
2018-07-30T02:12:45.225Z,96959
2018-07-30T02:14:01.083Z,96958
2018-07-30T02:15:16.990Z,96956
2018-07-30T02:16:32.881Z,96958
2018-07-30T02:17:48.767Z,96952
2018-07-30T02:19:04.625Z,96954
2018-07-30T02:20:20.511Z,96955
2018-07-30T02:21:36.436Z,96953
2018-07-30T02:22:52.301Z,96955
2018-07-30T02:24:08.986Z,96956
2018-07-30T02:25:24.897Z,96960
2018-07-30T02:26:40.751Z,96959
2018-07-30T02:27:56.657Z,96958
2018-07-30T02:29:12.601Z,96959
2018-07-30T02:30:28.473Z,96961
2018-07-30T02:31:44.396Z,96963
2018-07-30T02:33:00.290Z,96964
2018-07-30T02:34:16.178Z,96963
2018-07-30T02:35:32.079Z,96962
2018-07-30T02:36:47.979Z,96967
2018-07-30T02:39:44.725Z,96966
2018-07-30T02:41:00.636Z,96969
2018-07-30T02:42:16.508Z,96967
2018-07-30T02:43:33.384Z,96965
2018-07-30T02:46:31.099Z,96965
2018-07-30T02:47:46.961Z,96967
2018-07-30T02:49:03.827Z,96965
2018-07-30T02:50:19.909Z,96965
2018-07-30T02:51:35.774Z,96962
2018-07-30T02:52:51.669Z,96968
2018-07-30T02:54:07.546Z,96973
2018-07-30T02:55:23.433Z,96970
2018-07-30T02:56:39.322Z,96970
2018-07-30T02:57:55.170Z,96972
2018-07-30T02:59:11.156Z,96973
2018-07-30T03:02:07.890Z,96973
2018-07-30T03:03:23.885Z,96972
2018-07-30T03:04:39.828Z,96966
2018-07-30T03:05:55.760Z,96970
2018-07-30T03:07:11.685Z,96967
2018-07-30T03:08:27.599Z,96968
2018-07-30T03:11:24.291Z,96966
2018-07-30T03:12:40.201Z,96972
2018-07-30T03:13:56.105Z,96971
2018-07-30T03:15:12.004Z,96968
2018-07-30T03:16:27.948Z,96972
2018-07-30T03:17:43.818Z,96969
2018-07-30T03:18:59.695Z,96969
2018-07-30T03:20:15.612Z,96972
2018-07-30T03:21:31.477Z,96971
2018-07-30T03:22:47.360Z,96973
2018-07-30T03:24:03.261Z,96969
2018-07-30T03:25:19.169Z,96967
2018-07-30T03:26:35.069Z,96966
2018-07-30T03:27:50.962Z,96971
2018-07-30T03:29:06.854Z,96975
2018-07-30T03:30:22.716Z,96975
2018-07-30T03:31:38.634Z,96980
2018-07-30T03:32:54.494Z,96983
2018-07-30T03:34:10.346Z,96981
2018-07-30T03:35:26.256Z,96982
2018-07-30T03:36:42.147Z,96985
2018-07-30T03:40:54.393Z,96991
2018-07-30T03:42:10.278Z,96990
2018-07-30T03:43:26.177Z,96993
2018-07-30T03:44:42.093Z,96995
2018-07-30T03:45:58.022Z,96991
2018-07-30T03:47:13.882Z,96995
2018-07-30T03:48:29.819Z,96993
2018-07-30T03:49:45.670Z,96993
2018-07-30T03:51:01.570Z,96995
2018-07-30T03:52:17.458Z,96999
2018-07-30T03:53:33.337Z,97001
2018-07-30T03:54:49.355Z,97004
2018-07-30T03:56:05.178Z,97005
2018-07-30T03:57:21.122Z,97003
2018-07-30T03:58:37.053Z,97007
2018-07-30T03:59:53.007Z,97005
2018-07-30T04:01:08.861Z,97011
2018-07-30T04:02:24.785Z,97013
2018-07-30T04:03:40.682Z,97016
2018-07-30T04:04:56.594Z,97015
2018-07-30T04:06:12.598Z,97014
2018-07-30T04:07:28.401Z,97017
2018-07-30T04:08:44.342Z,97015
2018-07-30T04:10:00.216Z,97011
2018-07-30T04:11:16.147Z,97014
2018-07-30T04:12:32.087Z,97011
2018-07-30T04:13:48.042Z,97011
2018-07-30T04:15:03.978Z,97013
2018-07-30T04:16:19.887Z,97017
2018-07-30T04:17:35.765Z,97015
2018-07-30T04:18:51.786Z,97022
2018-07-30T04:20:07.721Z,97021
2018-07-30T04:21:23.622Z,97021
2018-07-30T04:22:39.553Z,97023
2018-07-30T04:23:55.427Z,97025
2018-07-30T04:25:11.518Z,97026
2018-07-30T04:26:27.421Z,97033
2018-07-30T04:27:43.319Z,97030
2018-07-30T04:28:59.227Z,97032
2018-07-30T04:30:15.205Z,97027
2018-07-30T04:33:11.721Z,97031
2018-07-30T04:34:27.596Z,97034
2018-07-30T04:35:43.504Z,97037
2018-07-30T04:36:59.406Z,97035
2018-07-30T04:38:15.318Z,97036
2018-07-30T04:39:31.264Z,97034
2018-07-30T04:40:47.188Z,97034
2018-07-30T04:42:03.050Z,97033
2018-07-30T04:43:19.001Z,97033
2018-07-30T04:44:34.967Z,97035
2018-07-30T04:45:50.902Z,97032
2018-07-30T04:47:06.824Z,97032
2018-07-30T04:48:23.504Z,97035
2018-07-30T04:49:39.447Z,97039
2018-07-30T04:50:55.406Z,97037
2018-07-30T04:53:52.251Z,97036
2018-07-30T04:55:08.186Z,97040
2018-07-30T04:56:24.162Z,97038
2018-07-30T04:57:40.073Z,97038
2018-07-30T04:58:55.959Z,97038
2018-07-30T05:00:11.832Z,97038
2018-07-30T05:01:27.715Z,97043
2018-07-30T05:02:43.617Z,97041
2018-07-30T05:03:59.512Z,97040
2018-07-30T05:05:15.411Z,97042
2018-07-30T05:06:31.312Z,97041
2018-07-30T05:07:47.261Z,97042
2018-07-30T05:09:03.135Z,97042
2018-07-30T05:10:19.027Z,97043
2018-07-30T05:11:34.878Z,97042
2018-07-30T05:14:31.588Z,97042
2018-07-30T05:15:47.440Z,97045
2018-07-30T05:17:03.315Z,97046
2018-07-30T05:18:19.236Z,97047
2018-07-30T05:19:35.127Z,97051
2018-07-30T05:20:51.027Z,97048
2018-07-30T05:22:06.947Z,97049
2018-07-30T05:23:22.871Z,97048
2018-07-30T05:24:38.771Z,97048
2018-07-30T05:25:54.660Z,97052
2018-07-30T05:27:10.557Z,97047
2018-07-30T05:28:26.451Z,97051
2018-07-30T05:29:42.331Z,97050
2018-07-30T05:30:58.232Z,97053
2018-07-30T05:32:14.227Z,97055
2018-07-30T05:33:30.132Z,97052
2018-07-30T05:34:46.015Z,97053
2018-07-30T05:36:01.875Z,97056
2018-07-30T05:37:17.783Z,97050
2018-07-30T05:38:33.653Z,97054
2018-07-30T05:39:49.548Z,97053
2018-07-30T05:41:05.416Z,97053
2018-07-30T05:42:21.301Z,97052
2018-07-30T05:43:37.188Z,97058
2018-07-30T05:44:53.075Z,97056
2018-07-30T05:46:08.952Z,97054
2018-07-30T05:47:24.886Z,97054
2018-07-30T05:48:40.756Z,97058
2018-07-30T05:49:56.632Z,97053
2018-07-30T05:51:12.477Z,97054
2018-07-30T05:52:28.365Z,97053
2018-07-30T05:53:44.302Z,97051
2018-07-30T05:55:00.196Z,97051
2018-07-30T05:56:16.079Z,97048
2018-07-30T05:57:32.001Z,97051
2018-07-30T05:58:47.869Z,97057
2018-07-30T06:00:03.764Z,97057
2018-07-30T06:01:19.651Z,97054
2018-07-30T06:02:35.510Z,97054
2018-07-30T06:03:51.411Z,97051
2018-07-30T06:05:07.304Z,97047
2018-07-30T06:06:23.189Z,97048
2018-07-30T06:07:39.159Z,97047
2018-07-30T06:08:55.024Z,97046
2018-07-30T06:10:10.900Z,97045
2018-07-30T06:11:26.786Z,97045
2018-07-30T06:12:42.682Z,97047
2018-07-30T06:13:58.610Z,97046
2018-07-30T06:15:14.527Z,97040
2018-07-30T06:16:30.476Z,97048
2018-07-30T06:17:46.385Z,97048
2018-07-30T06:19:02.311Z,97046
2018-07-30T06:20:18.166Z,97046
2018-07-30T06:21:34.072Z,97047
2018-07-30T06:22:49.977Z,97050
2018-07-30T06:24:05.884Z,97050
2018-07-30T06:25:21.756Z,97047
2018-07-30T06:26:37.663Z,97052
2018-07-30T06:27:53.568Z,97054
2018-07-30T06:29:09.462Z,97057
2018-07-30T06:30:25.362Z,97056
2018-07-30T06:31:41.211Z,97057
2018-07-30T06:32:57.212Z,97061
2018-07-30T06:34:13.118Z,97064
2018-07-30T06:35:29.064Z,97067
2018-07-30T06:36:44.933Z,97067
2018-07-30T06:38:00.820Z,97071
2018-07-30T06:39:16.726Z,97069
2018-07-30T06:40:32.622Z,97072
2018-07-30T06:41:48.531Z,97065
2018-07-30T06:43:04.395Z,97067
2018-07-30T06:44:20.511Z,97068
2018-07-30T06:45:36.409Z,97070
2018-07-30T06:46:52.295Z,97069
2018-07-30T06:48:08.148Z,97071
2018-07-30T06:49:24.054Z,97071
2018-07-30T06:50:39.955Z,97070
2018-07-30T06:53:36.782Z,97072
2018-07-30T06:54:52.664Z,97070
2018-07-30T06:56:08.583Z,97077
2018-07-30T06:57:24.554Z,97072
2018-07-30T06:58:40.484Z,97074
2018-07-30T06:59:56.318Z,97075
2018-07-30T07:01:12.221Z,97075
2018-07-30T07:02:28.122Z,97077
2018-07-30T07:03:44.001Z,97079
2018-07-30T07:04:59.925Z,97082
2018-07-30T07:06:15.809Z,97082
2018-07-30T07:07:31.695Z,97077
2018-07-30T07:08:47.557Z,97082
2018-07-30T07:10:03.498Z,97080
2018-07-30T07:11:19.374Z,97081
2018-07-30T07:12:35.276Z,97082
2018-07-30T07:13:51.153Z,97084
2018-07-30T07:15:07.082Z,97082
2018-07-30T07:16:22.961Z,97081
2018-07-30T07:17:38.886Z,97081
2018-07-30T07:18:54.778Z,97082
2018-07-30T07:20:10.750Z,97083
2018-07-30T07:21:26.820Z,97084
2018-07-30T07:22:42.674Z,97085
2018-07-30T07:23:58.571Z,97084
2018-07-30T07:25:14.552Z,97085
2018-07-30T07:26:30.444Z,97086
2018-07-30T07:27:46.309Z,97087
2018-07-30T07:29:02.188Z,97089
2018-07-30T07:30:18.100Z,97090
2018-07-30T07:31:34.001Z,97088
2018-07-30T07:32:49.904Z,97084
2018-07-30T07:34:05.792Z,97083
2018-07-30T07:35:21.698Z,97079
2018-07-30T07:36:37.574Z,97080
2018-07-30T07:37:53.484Z,97079
2018-07-30T07:39:09.376Z,97076
2018-07-30T07:40:26.352Z,97077
2018-07-30T07:41:42.318Z,97080
2018-07-30T07:42:58.214Z,97081
2018-07-30T07:44:14.118Z,97081
2018-07-30T07:45:30.000Z,97082
2018-07-30T07:46:45.902Z,97083
2018-07-30T07:48:01.869Z,97083
2018-07-30T07:49:17.778Z,97083
2018-07-30T07:50:33.795Z,97077
2018-07-30T07:51:49.651Z,97076
2018-07-30T07:53:05.539Z,97077
2018-07-30T07:54:21.414Z,97078
2018-07-30T07:55:37.330Z,97079
2018-07-30T07:56:53.180Z,97080
2018-07-30T07:58:09.059Z,97074
2018-07-30T07:59:24.935Z,97072
2018-07-30T08:00:40.848Z,97078
2018-07-30T08:01:56.716Z,97079
2018-07-30T08:03:12.577Z,97079
2018-07-30T08:04:28.430Z,97073
2018-07-30T08:05:44.377Z,97072
2018-07-30T08:07:00.293Z,97077
2018-07-30T08:08:16.197Z,97077
2018-07-30T08:09:32.073Z,97077
2018-07-30T08:10:48.051Z,97074
2018-07-30T08:12:03.905Z,97081
2018-07-30T08:13:19.800Z,97081
2018-07-30T08:14:35.736Z,97079
2018-07-30T08:15:51.622Z,97078
2018-07-30T08:17:07.525Z,97080
2018-07-30T08:18:23.411Z,97074
2018-07-30T08:19:39.352Z,97077
2018-07-30T08:20:55.246Z,97074
2018-07-30T08:22:11.144Z,97071
2018-07-30T08:23:27.062Z,97072
2018-07-30T08:24:42.942Z,97076
2018-07-30T08:25:58.884Z,97075
2018-07-30T08:27:14.811Z,97078
2018-07-30T08:28:30.701Z,97074
2018-07-30T08:29:46.634Z,97081
2018-07-30T08:31:02.525Z,97072
2018-07-30T08:32:18.426Z,97077
2018-07-30T08:33:34.319Z,97078
2018-07-30T08:34:50.207Z,97079
2018-07-30T08:36:06.081Z,97080
2018-07-30T08:37:21.992Z,97075
2018-07-30T08:38:37.940Z,97077
2018-07-30T08:39:53.865Z,97077
2018-07-30T08:41:09.779Z,97075
2018-07-30T08:42:25.709Z,97076
2018-07-30T08:43:41.653Z,97073
2018-07-30T08:44:57.529Z,97071
2018-07-30T08:46:13.435Z,97073
2018-07-30T08:47:29.288Z,97075
2018-07-30T08:48:45.242Z,97078
2018-07-30T08:50:01.099Z,97074
2018-07-30T08:51:16.984Z,97075
2018-07-30T08:52:33.051Z,97071
2018-07-30T08:53:49.944Z,97074
2018-07-30T08:55:05.894Z,97068
2018-07-30T08:56:21.783Z,97074
2018-07-30T08:57:37.690Z,97079
2018-07-30T08:58:53.772Z,97077
2018-07-30T09:00:09.691Z,97071
2018-07-30T09:01:25.598Z,97075
2018-07-30T09:02:41.547Z,97079
2018-07-30T09:03:57.455Z,97080
2018-07-30T09:05:13.368Z,97078
2018-07-30T09:06:29.261Z,97073
2018-07-30T09:07:45.144Z,97073
2018-07-30T09:09:01.035Z,97066
2018-07-30T09:10:16.961Z,97072
2018-07-30T09:11:32.898Z,97070
2018-07-30T09:12:48.930Z,97065
2018-07-30T09:14:04.729Z,97069
2018-07-30T09:15:20.709Z,97067
2018-07-30T09:16:36.631Z,97067
2018-07-30T09:17:52.498Z,97064
2018-07-30T09:19:08.455Z,97067
2018-07-30T09:20:24.347Z,97065
2018-07-30T09:21:40.226Z,97066
2018-07-30T09:22:56.184Z,97067
2018-07-30T09:24:12.153Z,97068
2018-07-30T09:25:28.026Z,97067
2018-07-30T09:26:43.947Z,97063
2018-07-30T09:27:59.855Z,97062
2018-07-30T09:29:15.780Z,97058
2018-07-30T09:30:31.689Z,97062
2018-07-30T09:31:47.586Z,97057
2018-07-30T09:33:03.770Z,97062
2018-07-30T09:34:19.437Z,97058
2018-07-30T09:35:35.384Z,97060
2018-07-30T09:36:51.282Z,97057
2018-07-30T09:38:07.292Z,97055
2018-07-30T09:39:23.320Z,97053
2018-07-30T09:40:39.108Z,97057
2018-07-30T09:41:55.049Z,97050
2018-07-30T09:43:10.963Z,97052
2018-07-30T09:44:26.930Z,97046
2018-07-30T09:45:42.812Z,97049
2018-07-30T09:46:58.698Z,97047
2018-07-30T09:48:14.638Z,97047
2018-07-30T09:49:30.491Z,97049
2018-07-30T09:50:46.423Z,97047
2018-07-30T09:52:02.284Z,97047
2018-07-30T09:53:18.155Z,97046
2018-07-30T09:54:34.136Z,97050
2018-07-30T09:55:50.075Z,97049
2018-07-30T09:57:05.987Z,97051
2018-07-30T09:58:21.920Z,97049
2018-07-30T09:59:37.860Z,97044
2018-07-30T10:00:53.752Z,97046
2018-07-30T10:02:09.647Z,97043
2018-07-30T10:03:25.527Z,97046
2018-07-30T10:04:41.453Z,97044
2018-07-30T10:05:57.455Z,97045
2018-07-30T10:07:13.412Z,97043
2018-07-30T10:08:29.288Z,97042
2018-07-30T10:12:41.889Z,97040
2018-07-30T10:13:57.775Z,97038
2018-07-30T10:15:13.722Z,97037
2018-07-30T10:16:29.681Z,97040
2018-07-30T10:17:45.715Z,97038
2018-07-30T10:19:01.476Z,97041
2018-07-30T10:21:58.229Z,97038
2018-07-30T10:23:14.140Z,97038
2018-07-30T10:24:30.061Z,97036
2018-07-30T10:25:45.989Z,97034
2018-07-30T10:27:01.946Z,97033
2018-07-30T10:28:17.819Z,97029
2018-07-30T10:29:33.722Z,97035
2018-07-30T10:30:49.660Z,97031
2018-07-30T10:32:05.667Z,97033
2018-07-30T10:33:21.541Z,97037
2018-07-30T10:34:37.463Z,97033
2018-07-30T10:35:53.345Z,97031
2018-07-30T10:37:09.288Z,97029
2018-07-30T10:38:25.380Z,97028
2018-07-30T10:39:42.208Z,97033
2018-07-30T10:40:58.077Z,97026
2018-07-30T10:42:13.986Z,97027
2018-07-30T10:43:29.909Z,97024
2018-07-30T10:44:45.769Z,97023
2018-07-30T10:46:01.689Z,97026
2018-07-30T10:47:17.672Z,97025
2018-07-30T10:48:33.601Z,97018
2018-07-30T10:49:49.477Z,97020
2018-07-30T10:51:05.397Z,97021
2018-07-30T10:52:22.261Z,97016
2018-07-30T10:53:38.188Z,97019
2018-07-30T10:54:54.016Z,97021
2018-07-30T10:56:09.932Z,97016
2018-07-30T10:57:25.815Z,97013
2018-07-30T10:58:41.745Z,97014
2018-07-30T10:59:57.657Z,97013
2018-07-30T11:01:13.539Z,97014
2018-07-30T11:02:29.457Z,97015
2018-07-30T11:03:45.391Z,97013
2018-07-30T11:05:01.264Z,97012
2018-07-30T11:06:17.145Z,97017
2018-07-30T11:07:33.028Z,97020
2018-07-30T11:08:48.913Z,97019
2018-07-30T11:10:04.847Z,97014
2018-07-30T11:11:20.791Z,97013
2018-07-30T11:12:36.696Z,97013
2018-07-30T11:13:52.681Z,97013
2018-07-30T11:15:08.612Z,97011
2018-07-30T11:16:24.515Z,97012
2018-07-30T11:17:40.558Z,97012
2018-07-30T11:18:56.473Z,97009
2018-07-30T11:20:12.368Z,97007
2018-07-30T11:21:28.266Z,97007
2018-07-30T11:22:44.139Z,97008
2018-07-30T11:24:00.090Z,97009
2018-07-30T11:25:15.961Z,97009
2018-07-30T11:26:31.875Z,97006
2018-07-30T11:27:47.818Z,97000
2018-07-30T11:29:03.796Z,97005
2018-07-30T11:30:19.680Z,97001
2018-07-30T11:31:35.564Z,96999
2018-07-30T11:32:51.504Z,96998
2018-07-30T11:34:07.410Z,96996
2018-07-30T11:35:23.332Z,96997
2018-07-30T11:36:39.233Z,96995
2018-07-30T11:37:55.158Z,96989
2018-07-30T11:39:11.062Z,96991
2018-07-30T11:40:26.933Z,96991
2018-07-30T11:41:42.911Z,96989
2018-07-30T11:42:58.880Z,96986
2018-07-30T11:44:14.737Z,96983
2018-07-30T11:45:30.648Z,96986
2018-07-30T11:46:46.557Z,96983
2018-07-30T11:48:02.482Z,96983
2018-07-30T11:49:18.403Z,96979
2018-07-30T11:50:34.257Z,96976
2018-07-30T11:51:50.205Z,96979
2018-07-30T11:53:06.146Z,96978
2018-07-30T11:54:22.108Z,96977
2018-07-30T11:55:37.969Z,96970
2018-07-30T11:56:54.047Z,96974
2018-07-30T11:58:09.982Z,96972
2018-07-30T11:59:25.920Z,96975
2018-07-30T12:00:41.816Z,96970
2018-07-30T12:01:57.778Z,96969
2018-07-30T12:03:13.688Z,96971
2018-07-30T12:04:29.591Z,96970
2018-07-30T12:05:45.504Z,96970
2018-07-30T12:07:01.419Z,96975
2018-07-30T12:08:17.353Z,96975
2018-07-30T12:09:33.227Z,96976
2018-07-30T12:10:49.190Z,96975
2018-07-30T12:12:05.087Z,96974
2018-07-30T12:13:20.991Z,96973
2018-07-30T12:14:37.050Z,96971
2018-07-30T12:15:53.094Z,96972
2018-07-30T12:17:09.047Z,96969
2018-07-30T12:18:24.970Z,96968
2018-07-30T12:19:40.842Z,96971
2018-07-30T12:20:56.764Z,96972
2018-07-30T12:22:12.687Z,96968
2018-07-30T12:23:28.576Z,96974
2018-07-30T12:24:44.428Z,96967
2018-07-30T12:26:00.301Z,96967
2018-07-30T12:27:16.200Z,96962
2018-07-30T12:28:32.076Z,96963
2018-07-30T12:29:47.995Z,96959
2018-07-30T12:31:03.865Z,96954
2018-07-30T12:32:19.759Z,96955
2018-07-30T12:33:35.614Z,96954
2018-07-30T12:34:51.507Z,96952
2018-07-30T12:36:07.396Z,96945
2018-07-30T12:37:23.289Z,96942
2018-07-30T12:38:39.157Z,96940
2018-07-30T12:39:55.068Z,96944
2018-07-30T12:41:10.966Z,96945
2018-07-30T12:42:26.882Z,96940
2018-07-30T12:43:42.772Z,96937
2018-07-30T12:44:58.764Z,96936
2018-07-30T12:46:14.623Z,96937
2018-07-30T12:47:30.554Z,96938
2018-07-30T12:48:46.472Z,96936
2018-07-30T12:50:02.381Z,96933
2018-07-30T12:51:18.287Z,96930
2018-07-30T12:52:34.194Z,96932
2018-07-30T12:53:50.083Z,96929
2018-07-30T12:55:05.943Z,96927
2018-07-30T12:56:21.837Z,96927
2018-07-30T12:57:37.733Z,96927
2018-07-30T12:58:53.648Z,96922
2018-07-30T13:00:09.565Z,96928
2018-07-30T13:01:25.436Z,96929
2018-07-30T13:02:41.387Z,96923
2018-07-30T13:03:57.252Z,96924
2018-07-30T13:05:13.149Z,96927
2018-07-30T13:06:29.048Z,96920
2018-07-30T13:07:44.933Z,96918
2018-07-30T13:09:00.845Z,96921
2018-07-30T13:10:16.866Z,96916
2018-07-30T13:11:32.743Z,96915
2018-07-30T13:12:48.612Z,96918
2018-07-30T13:14:04.480Z,96917
2018-07-30T13:15:20.405Z,96911
2018-07-30T13:16:36.301Z,96912
2018-07-30T13:17:52.187Z,96913
2018-07-30T13:19:08.187Z,96907
2018-07-30T13:20:24.090Z,96908
2018-07-30T13:21:40.016Z,96908
2018-07-30T13:22:55.919Z,96906
2018-07-30T13:24:11.870Z,96903
2018-07-30T13:25:27.792Z,96899
2018-07-30T13:26:43.725Z,96901
2018-07-30T13:27:59.565Z,96902
2018-07-30T13:29:15.448Z,96904
2018-07-30T13:30:31.392Z,96903
2018-07-30T13:31:47.327Z,96896
2018-07-30T13:33:03.188Z,96897
2018-07-30T13:34:19.092Z,96898
2018-07-30T13:35:35.043Z,96893
2018-07-30T13:36:50.964Z,96889
2018-07-30T13:38:06.901Z,96889
2018-07-30T13:39:22.781Z,96895
2018-07-30T13:40:38.707Z,96889
2018-07-30T13:41:54.635Z,96891
2018-07-30T13:43:10.512Z,96893
2018-07-30T13:44:26.429Z,96892
2018-07-30T13:45:42.295Z,96890
2018-07-30T13:46:58.201Z,96893
2018-07-30T13:48:14.140Z,96893
2018-07-30T13:49:30.032Z,96892
2018-07-30T13:50:45.903Z,96891
2018-07-30T13:52:01.806Z,96889
2018-07-30T13:53:17.700Z,96888
2018-07-30T13:54:33.678Z,96886
2018-07-30T13:55:49.535Z,96877
2018-07-30T13:58:46.339Z,96884
2018-07-30T14:00:02.327Z,96876
2018-07-30T14:01:18.134Z,96879
2018-07-30T14:02:34.041Z,96880
2018-07-30T14:03:49.924Z,96874
2018-07-30T14:05:05.788Z,96871
2018-07-30T14:06:21.741Z,96876
2018-07-30T14:07:37.577Z,96878
2018-07-30T14:08:53.515Z,96878
2018-07-30T14:10:09.453Z,96873
2018-07-30T14:11:25.361Z,96872
2018-07-30T14:12:41.321Z,96872
2018-07-30T14:13:57.202Z,96874
2018-07-30T14:15:13.104Z,96871
2018-07-30T14:16:29.070Z,96874
2018-07-30T14:17:44.961Z,96869
2018-07-30T14:19:00.839Z,96863
2018-07-30T14:20:16.757Z,96869
2018-07-30T14:21:32.702Z,96865
2018-07-30T14:22:48.586Z,96870
2018-07-30T14:24:04.497Z,96865
2018-07-30T14:25:20.363Z,96866
2018-07-30T14:26:36.279Z,96858
2018-07-30T14:27:52.200Z,96863
2018-07-30T14:29:08.097Z,96856
2018-07-30T14:30:23.979Z,96855
2018-07-30T14:31:39.920Z,96852
2018-07-30T14:32:55.870Z,96856
2018-07-30T14:34:11.835Z,96853
2018-07-30T14:35:27.743Z,96856
2018-07-30T14:36:43.653Z,96852
2018-07-30T14:37:59.599Z,96848
2018-07-30T14:39:16.155Z,96851
2018-07-30T14:40:32.121Z,96848
2018-07-30T14:41:48.026Z,96851
2018-07-30T14:43:03.936Z,96847
2018-07-30T14:44:19.905Z,96848
2018-07-30T14:45:35.841Z,96845
2018-07-30T14:46:51.756Z,96843
2018-07-30T14:48:07.663Z,96845
2018-07-30T14:49:23.631Z,96847
2018-07-30T14:50:39.548Z,96840
2018-07-30T14:51:55.433Z,96839
2018-07-30T14:53:11.390Z,96836
2018-07-30T14:54:27.301Z,96833
2018-07-30T14:55:43.248Z,96833
2018-07-30T14:56:59.211Z,96832
2018-07-30T14:58:15.137Z,96826
2018-07-30T14:59:31.075Z,96830
2018-07-30T15:00:47.001Z,96827
2018-07-30T15:02:03.003Z,96824
2018-07-30T15:03:18.918Z,96821
2018-07-30T15:04:34.835Z,96816
2018-07-30T15:05:50.771Z,96822
2018-07-30T15:07:06.739Z,96816
2018-07-30T15:08:22.622Z,96823
2018-07-30T15:09:38.553Z,96821
2018-07-30T15:10:54.444Z,96823
2018-07-30T15:12:10.381Z,96821
2018-07-30T15:13:26.253Z,96825
2018-07-30T15:14:42.208Z,96821
2018-07-30T15:15:58.157Z,96819
2018-07-30T15:17:14.151Z,96824
2018-07-30T15:18:30.084Z,96821
2018-07-30T15:19:46.073Z,96822
2018-07-30T15:21:02.039Z,96822
2018-07-30T15:22:17.923Z,96819
2018-07-30T15:23:33.877Z,96818
2018-07-30T15:24:49.810Z,96817
2018-07-30T15:26:05.767Z,96815
2018-07-30T15:27:21.682Z,96816
2018-07-30T15:28:37.615Z,96812
2018-07-30T15:29:53.540Z,96813
2018-07-30T15:31:09.469Z,96812
2018-07-30T15:32:25.362Z,96814
2018-07-30T15:33:41.254Z,96818
2018-07-30T15:34:57.173Z,96814
2018-07-30T15:36:13.138Z,96812
2018-07-30T15:37:29.108Z,96809
2018-07-30T15:38:45.035Z,96813
2018-07-30T15:40:00.953Z,96812
2018-07-30T15:41:16.848Z,96813
2018-07-30T15:42:32.806Z,96810
2018-07-30T15:43:48.759Z,96808
2018-07-30T15:45:04.668Z,96805
2018-07-30T15:46:20.584Z,96802
2018-07-30T15:47:36.579Z,96802
2018-07-30T15:48:52.512Z,96806
2018-07-30T15:50:08.420Z,96805
2018-07-30T15:51:24.348Z,96806
2018-07-30T15:52:40.236Z,96807
2018-07-30T15:53:56.243Z,96802
2018-07-30T15:55:12.095Z,96806
2018-07-30T15:56:27.996Z,96808
2018-07-30T15:57:43.956Z,96809
2018-07-30T15:58:59.841Z,96809
2018-07-30T16:00:15.819Z,96809
2018-07-30T16:01:31.816Z,96810
2018-07-30T16:02:47.723Z,96811
2018-07-30T16:04:03.674Z,96808
2018-07-30T16:05:19.665Z,96806
2018-07-30T16:06:35.518Z,96810
2018-07-30T16:07:51.435Z,96809
2018-07-30T16:09:07.366Z,96812
2018-07-30T16:10:23.336Z,96815
2018-07-30T16:11:39.249Z,96812
2018-07-30T16:12:55.197Z,96816
2018-07-30T16:14:11.081Z,96813
2018-07-30T16:15:27.001Z,96808
2018-07-30T16:16:42.944Z,96806
2018-07-30T16:17:58.916Z,96809
2018-07-30T16:19:14.882Z,96810
2018-07-30T16:20:30.817Z,96811
2018-07-30T16:21:46.722Z,96811
2018-07-30T16:23:02.751Z,96814
2018-07-30T16:24:18.661Z,96810
2018-07-30T16:25:34.597Z,96809
2018-07-30T16:26:50.515Z,96807
2018-07-30T16:28:06.429Z,96809
2018-07-30T16:29:22.359Z,96806
2018-07-30T16:30:38.323Z,96808
2018-07-30T16:31:54.193Z,96806
2018-07-30T16:33:10.125Z,96811
2018-07-30T16:34:26.007Z,96809
2018-07-30T16:35:41.882Z,96809
2018-07-30T16:36:57.851Z,96807
2018-07-30T16:38:13.776Z,96808
2018-07-30T16:39:29.686Z,96808
2018-07-30T16:40:45.601Z,96811
2018-07-30T16:42:01.537Z,96811
2018-07-30T16:43:17.454Z,96816
2018-07-30T16:44:33.410Z,96815